createdAt,value
2018-07-03T00:00:53.778Z,45.01
2018-07-03T00:01:53.770Z,45.01
2018-07-03T00:02:53.767Z,45.10
2018-07-03T00:03:53.748Z,45.10
2018-07-03T00:04:53.778Z,45.20
2018-07-03T00:05:53.750Z,45.10
2018-07-03T00:06:53.730Z,45.49
2018-07-03T00:07:53.760Z,45.59
2018-07-03T00:08:53.710Z,45.29
2018-07-03T00:09:53.710Z,45.01
2018-07-03T00:10:53.722Z,44.91
2018-07-03T00:11:53.730Z,45.29
2018-07-03T00:12:53.684Z,45.10
2018-07-03T00:13:53.723Z,44.91
2018-07-03T00:14:53.674Z,45.68
2018-07-03T00:15:53.681Z,45.18
2018-07-03T00:16:53.702Z,45.49
2018-07-03T00:17:54.452Z,45.01
2018-07-03T00:18:53.659Z,46.33
2018-07-03T00:19:53.639Z,46.04
2018-07-03T00:20:53.631Z,46.14
2018-07-03T00:21:53.657Z,46.23
2018-07-03T00:22:53.635Z,46.23
2018-07-03T00:23:53.637Z,45.85
2018-07-03T00:24:53.600Z,45.95
2018-07-03T00:25:53.595Z,45.66
2018-07-03T00:26:53.581Z,45.66
2018-07-03T00:27:53.568Z,45.66
2018-07-03T00:28:53.602Z,46.53
2018-07-03T00:29:53.563Z,46.04
2018-07-03T00:30:53.556Z,47.20
2018-07-03T00:31:53.546Z,47.20
2018-07-03T00:32:53.543Z,47.68
2018-07-03T00:33:53.574Z,47.66
2018-07-03T00:34:53.543Z,47.85
2018-07-03T00:35:53.525Z,48.04
2018-07-03T00:36:53.509Z,47.94
2018-07-03T00:37:53.507Z,47.85
2018-07-03T00:38:53.497Z,48.04
2018-07-03T00:39:53.530Z,47.85
2018-07-03T00:40:53.480Z,47.66
2018-07-03T00:41:53.476Z,46.98
2018-07-03T00:42:53.462Z,47.08
2018-07-03T00:43:53.473Z,47.94
2018-07-03T00:44:53.482Z,48.30
2018-07-03T00:45:53.465Z,47.94
2018-07-03T00:46:53.437Z,48.02
2018-07-03T00:47:53.428Z,48.59
2018-07-03T00:48:53.430Z,48.79
2018-07-03T00:49:53.489Z,48.40
2018-07-03T00:50:53.420Z,48.11
2018-07-03T00:51:53.400Z,48.02
2018-07-03T00:52:53.385Z,48.40
2018-07-03T00:53:53.397Z,47.92
2018-07-03T00:54:53.382Z,47.92
2018-07-03T00:55:53.383Z,47.72
2018-07-03T00:56:53.356Z,48.40
2018-07-03T00:57:53.341Z,48.21
2018-07-03T00:58:53.352Z,48.21
2018-07-03T00:59:53.333Z,49.65
2018-07-03T01:00:53.362Z,49.93
2018-07-03T01:01:53.313Z,49.93
2018-07-03T01:02:53.353Z,49.65
2018-07-03T01:03:53.301Z,50.32
2018-07-03T01:04:53.302Z,50.68
2018-07-03T01:05:53.287Z,50.01
2018-07-03T01:06:53.312Z,50.39
2018-07-03T01:07:53.279Z,51.35
2018-07-03T01:08:53.262Z,52.22
2018-07-03T01:09:53.262Z,51.54
2018-07-03T01:10:53.246Z,51.71
2018-07-03T01:11:53.273Z,52.19
2018-07-03T01:12:53.242Z,53.63
2018-07-03T01:13:53.251Z,53.15
2018-07-03T01:14:53.217Z,52.28
2018-07-03T01:15:53.210Z,52.76
2018-07-03T01:16:53.233Z,52.76
2018-07-03T01:17:53.196Z,52.38
2018-07-03T01:18:53.215Z,51.71
2018-07-03T01:19:53.180Z,51.81
2018-07-03T01:20:53.228Z,51.51
2018-07-03T01:21:53.148Z,51.51
2018-07-03T01:22:53.160Z,51.51
2018-07-03T01:23:53.140Z,51.97
2018-07-03T01:24:53.136Z,51.59
2018-07-03T01:25:53.129Z,51.20
2018-07-03T01:26:53.249Z,51.68
2018-07-03T01:27:53.112Z,52.26
2018-07-03T01:28:53.096Z,51.40
2018-07-03T01:29:53.089Z,51.78
2018-07-03T01:30:53.087Z,51.87
2018-07-03T01:31:53.075Z,51.78
2018-07-03T01:32:53.101Z,51.20
2018-07-03T01:33:53.060Z,51.59
2018-07-03T01:34:53.052Z,51.68
2018-07-03T01:35:53.040Z,51.87
2018-07-03T01:36:53.022Z,52.26
2018-07-03T01:37:53.025Z,53.03
2018-07-03T01:38:53.051Z,52.26
2018-07-03T01:39:53.005Z,53.70
2018-07-03T01:40:53.001Z,53.09
2018-07-03T01:41:52.986Z,53.86
2018-07-03T01:42:52.995Z,54.24
2018-07-03T01:43:52.969Z,54.72
2018-07-03T01:44:52.950Z,56.16
2018-07-03T01:45:52.952Z,56.45
2018-07-03T01:46:52.935Z,57.48
2018-07-03T01:47:53.067Z,56.13
2018-07-03T01:48:52.931Z,55.46
2018-07-03T01:49:52.917Z,55.36
2018-07-03T01:50:52.917Z,55.27
2018-07-03T01:51:52.900Z,54.32
2018-07-03T01:52:52.895Z,54.70
2018-07-03T01:53:52.909Z,54.22
2018-07-03T01:54:52.903Z,53.48
2018-07-03T01:55:52.856Z,53.64
2018-07-03T01:56:52.857Z,53.26
2018-07-03T01:57:52.844Z,52.78
2018-07-03T01:58:52.859Z,52.91
2018-07-03T01:59:53.125Z,52.91
2018-07-03T02:00:52.820Z,52.71
2018-07-03T02:01:52.808Z,52.69
2018-07-03T02:02:52.802Z,52.50
2018-07-03T02:03:52.789Z,52.69
2018-07-03T02:04:52.786Z,54.32
2018-07-03T02:05:52.782Z,54.22
2018-07-03T02:06:52.756Z,54.50
2018-07-03T02:07:52.751Z,54.41
2018-07-03T02:08:52.741Z,54.60
2018-07-03T02:09:52.732Z,54.32
2018-07-03T02:10:52.750Z,54.32
2018-07-03T02:11:52.719Z,53.64
2018-07-03T02:12:52.698Z,53.74
2018-07-03T02:13:52.701Z,54.41
2018-07-03T02:14:52.698Z,54.60
2018-07-03T02:15:52.835Z,54.12
2018-07-03T02:16:52.684Z,55.44
2018-07-03T02:17:52.666Z,54.86
2018-07-03T02:18:52.657Z,55.05
2018-07-03T02:19:52.645Z,54.77
2018-07-03T02:20:52.631Z,55.73
2018-07-03T02:21:53.036Z,55.15
2018-07-03T02:22:52.622Z,54.96
2018-07-03T02:23:52.601Z,54.67
2018-07-03T02:24:52.588Z,54.38
2018-07-03T02:25:52.590Z,54.28
2018-07-03T02:26:52.611Z,55.91
2018-07-03T02:27:52.742Z,56.59
2018-07-03T02:28:52.594Z,55.73
2018-07-03T02:29:52.603Z,56.10
2018-07-03T02:30:52.537Z,55.91
2018-07-03T02:31:52.524Z,55.56
2018-07-03T02:32:52.701Z,54.86
2018-07-03T02:33:52.687Z,54.99
2018-07-03T02:34:52.533Z,54.99
2018-07-03T02:35:52.482Z,54.50
2018-07-03T02:36:52.488Z,54.41
2018-07-03T02:37:52.471Z,54.22
2018-07-03T02:38:52.456Z,54.03
2018-07-03T02:39:52.459Z,54.99
2018-07-03T02:40:52.445Z,55.46
2018-07-03T02:41:52.435Z,56.01
2018-07-03T02:42:52.428Z,56.87
2018-07-03T02:43:52.444Z,57.54
2018-07-03T02:44:52.408Z,58.22
2018-07-03T02:45:52.395Z,60.00
2018-07-03T02:46:52.390Z,58.47
2018-07-03T02:47:52.379Z,59.62
2018-07-03T02:48:52.367Z,59.52
2018-07-03T02:49:52.362Z,58.37
2018-07-03T02:50:52.346Z,58.37
2018-07-03T02:51:52.340Z,58.18
2018-07-03T02:52:52.330Z,57.90
2018-07-03T02:53:52.322Z,57.70
2018-07-03T02:54:52.310Z,57.32
2018-07-03T02:55:52.310Z,56.94
2018-07-03T02:56:52.277Z,57.13
2018-07-03T02:57:52.277Z,56.77
2018-07-03T02:58:52.280Z,56.77
2018-07-03T02:59:52.305Z,56.59
2018-07-03T03:00:52.286Z,56.01
2018-07-03T03:01:52.237Z,55.82
2018-07-03T03:02:52.221Z,55.53
2018-07-03T03:03:52.214Z,55.73
2018-07-03T03:04:52.212Z,55.82
2018-07-03T03:05:52.227Z,55.73
2018-07-03T03:06:52.194Z,55.53
2018-07-03T03:07:52.197Z,55.73
2018-07-03T03:08:52.159Z,56.01
2018-07-03T03:09:52.154Z,57.80
2018-07-03T03:10:52.181Z,59.14
2018-07-03T03:11:52.141Z,59.23
2018-07-03T03:12:52.123Z,58.18
2018-07-03T03:13:52.130Z,57.70
2018-07-03T03:14:52.112Z,57.13
2018-07-03T03:15:52.549Z,56.75
2018-07-03T03:16:52.080Z,57.13
2018-07-03T03:17:52.075Z,56.46
2018-07-03T03:18:52.081Z,56.08
2018-07-03T03:19:52.060Z,55.98
2018-07-03T03:20:52.060Z,56.08
2018-07-03T03:21:52.045Z,57.13
2018-07-03T03:22:52.058Z,56.27
2018-07-03T03:23:52.012Z,56.08
2018-07-03T03:24:52.006Z,56.56
2018-07-03T03:25:52.007Z,56.65
2018-07-03T03:26:52.014Z,57.42
2018-07-03T03:27:51.989Z,57.13
2018-07-03T03:28:51.966Z,57.70
2018-07-03T03:29:51.953Z,57.99
2018-07-03T03:30:51.948Z,58.37
2018-07-03T03:31:51.938Z,58.56
2018-07-03T03:32:51.926Z,57.90
2018-07-03T03:33:51.910Z,57.32
2018-07-03T03:34:51.917Z,57.04
2018-07-03T03:35:51.904Z,57.13
2018-07-03T03:36:51.886Z,56.94
2018-07-03T03:37:51.900Z,56.84
2018-07-03T03:38:52.111Z,57.58
2018-07-03T03:39:51.865Z,57.39
2018-07-03T03:40:51.851Z,57.68
2018-07-03T03:41:52.057Z,57.20
2018-07-03T03:42:51.843Z,56.82
2018-07-03T03:43:51.820Z,57.68
2018-07-03T03:44:51.805Z,58.15
2018-07-03T03:45:51.797Z,57.68
2018-07-03T03:46:51.790Z,56.62
2018-07-03T03:47:51.799Z,56.91
2018-07-03T03:48:51.760Z,56.24
2018-07-03T03:49:51.753Z,56.82
2018-07-03T03:50:51.737Z,56.17
2018-07-03T03:51:51.744Z,56.34
2018-07-03T03:52:51.758Z,56.46
2018-07-03T03:53:51.802Z,56.46
2018-07-03T03:54:51.711Z,55.79
2018-07-03T03:55:51.697Z,55.79
2018-07-03T03:56:51.678Z,55.51
2018-07-03T03:57:51.717Z,55.69
2018-07-03T03:58:51.666Z,55.41
2018-07-03T03:59:51.662Z,55.31
2018-07-03T04:00:51.679Z,55.41
2018-07-03T04:01:51.633Z,55.41
2018-07-03T04:02:51.627Z,54.83
2018-07-03T04:03:51.616Z,54.64
2018-07-03T04:04:52.050Z,54.64
2018-07-03T04:05:51.596Z,55.41
2018-07-03T04:06:51.586Z,55.51
2018-07-03T04:07:51.572Z,55.60
2018-07-03T04:08:51.562Z,55.60
2018-07-03T04:09:51.553Z,55.86
2018-07-03T04:10:51.904Z,55.47
2018-07-03T04:11:51.537Z,55.57
2018-07-03T04:12:51.517Z,55.88
2018-07-03T04:13:51.518Z,55.38
2018-07-03T04:14:51.509Z,55.19
2018-07-03T04:15:51.503Z,55.19
2018-07-03T04:16:51.497Z,55.31
2018-07-03T04:17:51.479Z,55.38
2018-07-03T04:18:51.458Z,55.41
2018-07-03T04:19:51.445Z,55.29
2018-07-03T04:20:51.430Z,55.29
2018-07-03T04:21:51.434Z,55.41
2018-07-03T04:22:51.420Z,55.22
2018-07-03T04:23:51.408Z,54.93
2018-07-03T04:24:51.397Z,54.93
2018-07-03T04:25:51.609Z,54.93
2018-07-03T04:26:51.372Z,54.83
2018-07-03T04:27:51.365Z,54.74
2018-07-03T04:28:51.358Z,55.02
2018-07-03T04:29:51.357Z,54.74
2018-07-03T04:30:51.333Z,54.55
2018-07-03T04:31:51.351Z,54.74
2018-07-03T04:32:51.314Z,54.83
2018-07-03T04:33:51.299Z,54.74
2018-07-03T04:34:51.290Z,54.83
2018-07-03T04:35:51.292Z,54.74
2018-07-03T04:36:51.279Z,54.83
2018-07-03T04:37:51.282Z,54.55
2018-07-03T04:38:51.258Z,55.02
2018-07-03T04:39:51.248Z,54.64
2018-07-03T04:40:51.222Z,54.93
2018-07-03T04:41:51.227Z,55.98
2018-07-03T04:42:51.209Z,56.17
2018-07-03T04:43:51.204Z,56.08
2018-07-03T04:44:51.183Z,55.79
2018-07-03T04:45:51.173Z,55.79
2018-07-03T04:46:51.359Z,55.98
2018-07-03T04:47:51.161Z,55.98
2018-07-03T04:48:51.147Z,55.60
2018-07-03T04:49:51.145Z,55.98
2018-07-03T04:50:51.128Z,55.98
2018-07-03T04:51:51.120Z,56.27
2018-07-03T04:52:51.132Z,56.27
2018-07-03T04:53:51.102Z,55.98
2018-07-03T04:54:51.092Z,55.88
2018-07-03T04:55:51.082Z,55.60
2018-07-03T04:56:51.062Z,55.51
2018-07-03T04:57:51.100Z,55.34
2018-07-03T04:58:51.086Z,54.93
2018-07-03T04:59:51.048Z,54.77
2018-07-03T05:00:51.035Z,55.05
2018-07-03T05:01:51.022Z,54.67
2018-07-03T05:02:51.054Z,55.15
2018-07-03T05:03:51.011Z,54.96
2018-07-03T05:04:50.994Z,54.86
2018-07-03T05:05:50.993Z,54.67
2018-07-03T05:06:50.971Z,54.96
2018-07-03T05:07:50.992Z,54.67
2018-07-03T05:08:50.962Z,57.16
2018-07-03T05:09:50.943Z,56.68
2018-07-03T05:10:50.944Z,56.01
2018-07-03T05:11:50.923Z,56.68
2018-07-03T05:12:50.918Z,55.34
2018-07-03T05:13:50.912Z,55.91
2018-07-03T05:14:50.892Z,55.63
2018-07-03T05:15:50.884Z,55.53
2018-07-03T05:16:50.869Z,55.44
2018-07-03T05:17:50.920Z,56.01
2018-07-03T05:18:50.854Z,55.63
2018-07-03T05:19:50.841Z,57.54
2018-07-03T05:20:50.835Z,56.71
2018-07-03T05:21:50.824Z,56.42
2018-07-03T05:22:50.827Z,57.09
2018-07-03T05:23:50.808Z,58.62
2018-07-03T05:24:50.790Z,57.48
2018-07-03T05:25:50.799Z,57.76
2018-07-03T05:26:50.819Z,57.67
2018-07-03T05:27:50.766Z,57.28
2018-07-03T05:28:50.758Z,56.99
2018-07-03T05:29:50.750Z,57.48
2018-07-03T05:30:50.769Z,56.71
2018-07-03T05:31:50.723Z,56.61
2018-07-03T05:32:50.725Z,56.32
2018-07-03T05:33:50.710Z,56.42
2018-07-03T05:34:50.733Z,56.42
2018-07-03T05:35:50.699Z,56.23
2018-07-03T05:36:50.672Z,55.56
2018-07-03T05:37:50.708Z,56.04
2018-07-03T05:38:50.659Z,55.75
2018-07-03T05:39:50.651Z,56.52
2018-07-03T05:40:50.636Z,55.58
2018-07-03T05:41:50.657Z,57.12
2018-07-03T05:42:50.618Z,58.08
2018-07-03T05:43:50.616Z,59.39
2018-07-03T05:44:50.600Z,60.16
2018-07-03T05:45:50.627Z,60.25
2018-07-03T05:46:50.590Z,59.77
2018-07-03T05:47:50.581Z,58.72
2018-07-03T05:48:50.562Z,60.06
2018-07-03T05:49:50.621Z,60.38
2018-07-03T05:50:50.550Z,60.96
2018-07-03T05:51:50.537Z,62.20
2018-07-03T05:52:50.524Z,61.63
2018-07-03T05:53:50.522Z,61.24
2018-07-03T05:54:50.517Z,61.63
2018-07-03T05:55:50.540Z,60.86
2018-07-03T05:56:50.498Z,61.43
2018-07-03T05:57:50.554Z,62.59
2018-07-03T05:58:50.478Z,61.05
2018-07-03T05:59:50.599Z,60.86
2018-07-03T06:00:50.465Z,62.39
2018-07-03T06:01:50.447Z,62.10
2018-07-03T06:02:50.446Z,62.59
2018-07-03T06:03:50.475Z,61.66
2018-07-03T06:04:50.425Z,61.82
2018-07-03T06:05:50.421Z,61.34
2018-07-03T06:06:50.408Z,61.46
2018-07-03T06:07:50.395Z,60.89
2018-07-03T06:08:50.387Z,59.74
2018-07-03T06:09:50.381Z,59.55
2018-07-03T06:10:50.393Z,58.97
2018-07-03T06:11:50.354Z,58.49
2018-07-03T06:12:50.372Z,58.11
2018-07-03T06:13:50.369Z,57.92
2018-07-03T06:14:50.391Z,57.82
2018-07-03T06:15:50.316Z,57.63
2018-07-03T06:16:50.322Z,57.24
2018-07-03T06:17:50.304Z,57.75
2018-07-03T06:18:50.307Z,57.06
2018-07-03T06:19:50.324Z,57.28
2018-07-03T06:20:50.283Z,57.06
2018-07-03T06:21:50.268Z,57.37
2018-07-03T06:22:50.285Z,56.60
2018-07-03T06:23:50.251Z,56.31
2018-07-03T06:24:50.278Z,57.46
2018-07-03T06:25:50.237Z,57.28
2018-07-03T06:26:50.220Z,57.18
2018-07-03T06:27:50.221Z,57.08
2018-07-03T06:28:50.234Z,57.37
2018-07-03T06:29:50.236Z,56.98
2018-07-03T06:30:50.255Z,57.28
2018-07-03T06:31:50.192Z,57.40
2018-07-03T06:32:50.185Z,56.89
2018-07-03T06:33:50.168Z,56.53
2018-07-03T06:34:50.168Z,56.92
2018-07-03T06:35:50.165Z,56.44
2018-07-03T06:36:50.184Z,56.63
2018-07-03T06:37:50.173Z,56.05
2018-07-03T06:38:50.132Z,56.15
2018-07-03T06:39:50.116Z,55.67
2018-07-03T06:40:50.112Z,55.96
2018-07-03T06:41:50.108Z,55.86
2018-07-03T06:42:50.132Z,55.86
2018-07-03T06:43:50.083Z,56.92
2018-07-03T06:44:50.162Z,57.30
2018-07-03T06:45:50.074Z,56.63
2018-07-03T06:46:50.061Z,56.63
2018-07-03T06:47:50.064Z,56.24
2018-07-03T06:48:50.321Z,55.96
2018-07-03T06:49:50.073Z,56.63
2018-07-03T06:50:50.029Z,56.95
2018-07-03T06:51:50.055Z,57.68
2018-07-03T06:52:50.105Z,58.67
2018-07-03T06:53:50.006Z,58.67
2018-07-03T06:54:49.997Z,57.90
2018-07-03T06:55:49.995Z,57.52
2018-07-03T06:56:49.977Z,56.66
2018-07-03T06:57:50.104Z,56.95
2018-07-03T06:58:49.980Z,56.37
2018-07-03T06:59:49.950Z,55.99
2018-07-03T07:00:49.946Z,56.46
2018-07-03T07:01:49.952Z,56.37
2018-07-03T07:02:49.940Z,55.89
2018-07-03T07:03:49.936Z,55.89
2018-07-03T07:04:49.918Z,56.18
2018-07-03T07:05:49.924Z,55.99
2018-07-03T07:06:49.911Z,55.69
2018-07-03T07:07:49.903Z,55.82
2018-07-03T07:08:50.035Z,55.63
2018-07-03T07:09:49.889Z,55.91
2018-07-03T07:10:49.870Z,55.82
2018-07-03T07:11:49.870Z,56.21
2018-07-03T07:12:49.864Z,55.44
2018-07-03T07:13:49.851Z,56.01
2018-07-03T07:14:49.855Z,55.15
2018-07-03T07:15:49.833Z,55.53
2018-07-03T07:16:49.831Z,55.91
2018-07-03T07:17:49.862Z,55.63
2018-07-03T07:18:49.931Z,55.63
2018-07-03T07:19:49.862Z,54.86
2018-07-03T07:20:49.800Z,55.24
2018-07-03T07:21:49.798Z,55.15
2018-07-03T07:22:49.783Z,54.28
2018-07-03T07:23:49.779Z,54.67
2018-07-03T07:24:49.770Z,54.47
2018-07-03T07:25:49.771Z,54.38
2018-07-03T07:26:49.754Z,54.31
2018-07-03T07:27:49.743Z,54.41
2018-07-03T07:28:49.749Z,54.41
2018-07-03T07:29:49.772Z,54.31
2018-07-03T07:30:49.733Z,53.54
2018-07-03T07:31:49.718Z,54.69
2018-07-03T07:32:49.715Z,54.02
2018-07-03T07:33:49.706Z,54.31
2018-07-03T07:34:49.738Z,53.74
2018-07-03T07:35:49.707Z,53.74
2018-07-03T07:36:49.688Z,53.54
2018-07-03T07:37:49.680Z,53.38
2018-07-03T07:38:49.703Z,53.38
2018-07-03T07:39:49.670Z,53.76
2018-07-03T07:40:49.650Z,54.22
2018-07-03T07:41:49.645Z,53.66
2018-07-03T07:42:49.705Z,53.66
2018-07-03T07:43:49.630Z,53.09
2018-07-03T07:44:49.616Z,53.38
2018-07-03T07:45:49.625Z,53.19
2018-07-03T07:46:49.612Z,53.28
2018-07-03T07:47:49.648Z,53.19
2018-07-03T07:48:49.877Z,53.19
2018-07-03T07:49:49.602Z,52.89
2018-07-03T07:50:49.580Z,52.89
2018-07-03T07:51:49.585Z,52.89
2018-07-03T07:52:49.576Z,52.61
2018-07-03T07:53:49.567Z,52.15
2018-07-03T07:54:49.594Z,52.34
2018-07-03T07:55:49.565Z,52.63
2018-07-03T07:56:49.549Z,52.83
2018-07-03T07:57:49.721Z,52.83
2018-07-03T07:58:49.528Z,52.44
2018-07-03T07:59:49.665Z,52.06
2018-07-03T08:00:49.541Z,52.15
2018-07-03T08:01:49.520Z,51.48
2018-07-03T08:02:49.510Z,51.57
2018-07-03T08:03:49.507Z,51.96
2018-07-03T08:04:49.526Z,51.19
2018-07-03T08:05:49.495Z,51.48
2018-07-03T08:06:49.511Z,51.67
2018-07-03T08:07:49.476Z,51.86
2018-07-03T08:08:49.474Z,51.60
2018-07-03T08:09:49.466Z,51.31
2018-07-03T08:10:49.494Z,51.12
2018-07-03T08:11:49.451Z,51.21
2018-07-03T08:12:49.452Z,50.83
2018-07-03T08:13:49.443Z,50.83
2018-07-03T08:14:49.440Z,50.63
2018-07-03T08:15:49.426Z,50.25
2018-07-03T08:16:49.427Z,49.19
2018-07-03T08:17:49.420Z,48.81
2018-07-03T08:18:49.409Z,49.38
2018-07-03T08:19:49.535Z,49.02
2018-07-03T08:20:49.390Z,49.22
2018-07-03T08:21:49.388Z,49.02
2018-07-03T08:22:49.381Z,49.02
2018-07-03T08:23:49.379Z,48.44
2018-07-03T08:24:49.370Z,47.87
2018-07-03T08:25:49.418Z,47.97
2018-07-03T08:26:49.352Z,47.87
2018-07-03T08:27:49.350Z,48.54
2018-07-03T08:28:49.635Z,48.16
2018-07-03T08:29:50.135Z,46.93
2018-07-03T08:30:49.423Z,47.22
2018-07-03T08:31:49.468Z,47.41
2018-07-03T08:32:49.432Z,47.51
2018-07-03T08:33:49.330Z,47.99
2018-07-03T08:34:49.319Z,48.47
2018-07-03T08:35:49.300Z,48.21
2018-07-03T08:36:49.446Z,48.30
2018-07-03T08:37:49.499Z,49.10
2018-07-03T08:38:49.298Z,48.71
2018-07-03T08:39:49.337Z,48.13
2018-07-03T08:40:49.279Z,46.49
2018-07-03T08:41:49.291Z,44.97
2018-07-03T08:42:49.314Z,44.87
2018-07-03T08:43:49.259Z,43.72
2018-07-03T08:44:49.304Z,43.62
2018-07-03T08:45:49.256Z,41.88
2018-07-03T08:46:49.263Z,40.63
2018-07-03T08:47:49.248Z,41.98
2018-07-03T08:48:49.256Z,42.08
2018-07-03T08:49:49.253Z,43.54
2018-07-03T08:50:49.246Z,42.70
2018-07-03T08:51:49.274Z,41.25
2018-07-03T08:52:49.252Z,39.62
2018-07-03T08:53:49.248Z,40.71
2018-07-03T08:54:49.277Z,41.41
2018-07-03T08:55:49.238Z,40.07
2018-07-03T08:56:49.229Z,38.15
2018-07-03T08:57:49.242Z,34.47
2018-07-03T08:58:49.246Z,33.02
2018-07-03T08:59:49.308Z,35.27
2018-07-03T09:00:49.261Z,36.16
2018-07-03T09:01:49.592Z,34.33
2018-07-03T09:02:49.239Z,34.25
2018-07-03T09:03:49.287Z,34.56
2018-07-03T09:04:49.243Z,35.17
2018-07-03T09:05:51.148Z,35.49
2018-07-03T09:06:49.277Z,35.11
2018-07-03T09:07:49.254Z,31.92
2018-07-03T09:08:49.246Z,29.50
2018-07-03T09:09:49.254Z,28.92
2018-07-03T09:10:49.265Z,29.71
2018-07-03T09:11:49.262Z,28.75
2018-07-03T09:12:49.295Z,25.74
2018-07-03T09:13:49.289Z,27.01
2018-07-03T09:14:49.277Z,28.88
2018-07-03T09:15:49.266Z,29.17
2018-07-03T09:16:49.272Z,23.33
2018-07-03T09:17:49.671Z,22.24
2018-07-03T09:18:49.284Z,23.32
2018-07-03T09:19:49.289Z,22.16
2018-07-03T09:20:49.295Z,21.57
2018-07-03T09:21:49.309Z,22.16
2018-07-03T09:22:49.305Z,22.17
2018-07-03T09:23:49.344Z,24.42
2018-07-03T09:24:49.309Z,25.40
2018-07-03T09:25:49.323Z,26.11
2018-07-03T09:26:49.323Z,20.34
2018-07-03T09:27:49.341Z,19.35
2018-07-03T09:28:49.391Z,21.01
2018-07-03T09:29:49.353Z,23.65
2018-07-03T09:30:49.354Z,24.92
2018-07-03T09:31:49.357Z,23.36
2018-07-03T09:32:49.359Z,24.71
2018-07-03T09:33:49.373Z,24.82
2018-07-03T09:34:49.387Z,24.53
2018-07-03T09:35:49.382Z,25.24
2018-07-03T09:36:49.393Z,22.50
2018-07-03T09:37:49.421Z,22.50
2018-07-03T09:38:49.423Z,18.77
2018-07-03T09:39:49.413Z,19.26
2018-07-03T09:40:49.414Z,20.53
2018-07-03T09:41:49.419Z,21.51
2018-07-03T09:42:49.428Z,23.58
2018-07-03T09:43:49.469Z,23.98
2018-07-03T09:44:49.449Z,24.68
2018-07-03T09:45:49.459Z,25.07
2018-07-03T09:46:49.460Z,23.31
2018-07-03T09:47:49.470Z,20.27
2018-07-03T09:48:49.528Z,17.91
2018-07-03T09:49:49.512Z,19.86
2018-07-03T09:50:49.515Z,18.38
2018-07-03T09:51:49.515Z,19.35
2018-07-03T09:52:49.509Z,21.20
2018-07-03T09:53:49.510Z,22.58
2018-07-03T09:54:49.562Z,19.35
2018-07-03T09:55:49.515Z,17.39
2018-07-03T09:56:49.524Z,18.95
2018-07-03T09:57:49.576Z,18.85
2018-07-03T09:58:49.528Z,18.75
2018-07-03T09:59:49.730Z,21.41
2018-07-03T10:00:49.546Z,22.41
2018-07-03T10:01:49.548Z,22.22
2018-07-03T10:02:49.580Z,19.39
2018-07-03T10:03:49.562Z,18.12
2018-07-03T10:04:49.617Z,19.39
2018-07-03T10:05:49.580Z,20.48
2018-07-03T10:06:49.601Z,19.90
2018-07-03T10:07:49.740Z,20.79
2018-07-03T10:08:49.606Z,18.93
2018-07-03T10:09:49.598Z,16.57
2018-07-03T10:10:49.622Z,17.35
2018-07-03T10:11:49.634Z,17.94
2018-07-03T10:12:49.628Z,18.52
2018-07-03T10:13:49.996Z,19.81
2018-07-03T10:14:49.648Z,18.24
2018-07-03T10:15:49.643Z,16.27
2018-07-03T10:16:49.660Z,16.06
2018-07-03T10:17:49.657Z,16.75
2018-07-03T10:18:49.690Z,18.41
2018-07-03T10:19:49.685Z,19.10
2018-07-03T10:20:49.685Z,17.24
2018-07-03T10:21:49.694Z,16.75
2018-07-03T10:22:49.702Z,17.92
2018-07-03T10:23:49.736Z,18.23
2018-07-03T10:24:49.783Z,18.51
2018-07-03T10:25:49.724Z,19.29
2018-07-03T10:26:49.729Z,19.39
2018-07-03T10:27:49.786Z,20.38
2018-07-03T10:28:49.767Z,20.48
2018-07-03T10:29:49.769Z,18.60
2018-07-03T10:30:49.842Z,19.10
2018-07-03T10:31:49.767Z,19.88
2018-07-03T10:32:49.773Z,20.37
2018-07-03T10:33:49.785Z,20.47
2018-07-03T10:34:49.787Z,21.16
2018-07-03T10:35:49.785Z,20.68
2018-07-03T10:36:49.801Z,19.02
2018-07-03T10:37:49.796Z,19.82
2018-07-03T10:38:49.812Z,16.78
2018-07-03T10:39:49.815Z,16.78
2018-07-03T10:40:49.830Z,16.28
2018-07-03T10:41:50.255Z,15.79
2018-07-03T10:42:49.853Z,14.71
2018-07-03T10:43:49.844Z,15.59
2018-07-03T10:44:49.848Z,15.01
2018-07-03T10:45:49.856Z,13.84
2018-07-03T10:46:49.868Z,12.85
2018-07-03T10:47:49.992Z,13.53
2018-07-03T10:48:49.895Z,15.48
2018-07-03T10:49:49.884Z,15.10
2018-07-03T10:50:49.894Z,15.79
2018-07-03T10:51:49.904Z,15.31
2018-07-03T10:52:49.909Z,14.52
2018-07-03T10:53:49.924Z,13.04
2018-07-03T10:54:49.920Z,14.90
2018-07-03T10:55:49.923Z,15.99
2018-07-03T10:56:49.938Z,16.38
2018-07-03T10:57:49.954Z,16.28
2018-07-03T10:58:49.982Z,16.01
2018-07-03T10:59:50.022Z,16.89
2018-07-03T11:00:49.966Z,17.38
2018-07-03T11:01:49.981Z,17.88
2018-07-03T11:02:49.976Z,17.86
2018-07-03T11:03:49.977Z,18.26
2018-07-03T11:04:50.028Z,15.70
2018-07-03T11:05:50.004Z,12.84
2018-07-03T11:06:50.012Z,12.73
2018-07-03T11:07:50.024Z,13.41
2018-07-03T11:08:50.012Z,13.98
2018-07-03T11:09:50.056Z,14.95
2018-07-03T11:10:50.026Z,15.15
2018-07-03T11:11:50.026Z,16.12
2018-07-03T11:12:50.029Z,17.29
2018-07-03T11:13:50.068Z,17.77
2018-07-03T11:14:50.104Z,17.66
2018-07-03T11:15:50.056Z,18.05
2018-07-03T11:16:50.055Z,17.76
2018-07-03T11:17:50.051Z,17.66
2018-07-03T11:18:50.066Z,17.66
2018-07-03T11:19:50.193Z,17.86
2018-07-03T11:20:50.205Z,18.16
2018-07-03T11:21:50.075Z,17.77
2018-07-03T11:22:50.082Z,18.27
2018-07-03T11:23:50.082Z,18.18
2018-07-03T11:24:50.082Z,17.21
2018-07-03T11:25:50.088Z,16.93
2018-07-03T11:26:50.122Z,16.14
2018-07-03T11:27:50.087Z,16.92
2018-07-03T11:28:50.138Z,16.42
2018-07-03T11:29:50.093Z,15.94
2018-07-03T11:30:50.141Z,16.62
2018-07-03T11:31:50.145Z,16.42
2018-07-03T11:32:50.118Z,16.72
2018-07-03T11:33:50.128Z,16.34
2018-07-03T11:34:50.126Z,17.71
2018-07-03T11:35:50.135Z,16.75
2018-07-03T11:36:50.143Z,17.54
2018-07-03T11:37:50.165Z,15.78
2018-07-03T11:38:50.145Z,15.00
2018-07-03T11:39:50.157Z,15.59
2018-07-03T11:40:50.153Z,15.50
2018-07-03T11:41:50.195Z,17.09
2018-07-03T11:42:50.181Z,17.79
2018-07-03T11:43:50.185Z,17.79
2018-07-03T11:44:50.231Z,17.11
2018-07-03T11:45:50.207Z,17.50
2018-07-03T11:46:50.307Z,14.05
2018-07-03T11:47:50.215Z,14.24
2018-07-03T11:48:50.231Z,14.32
2018-07-03T11:49:50.235Z,14.01
2018-07-03T11:50:50.241Z,13.90
2018-07-03T11:51:50.247Z,15.17
2018-07-03T11:52:50.604Z,15.75
2018-07-03T11:53:50.246Z,15.35
2018-07-03T11:54:50.265Z,15.73
2018-07-03T11:55:50.261Z,14.84
2018-07-03T11:56:50.250Z,15.91
2018-07-03T11:57:50.262Z,17.17
2018-07-03T11:58:50.287Z,17.65
2018-07-03T11:59:50.284Z,17.93
2018-07-03T12:00:50.275Z,18.32
2018-07-03T12:01:50.282Z,18.32
2018-07-03T12:02:50.275Z,18.90
2018-07-03T12:03:50.330Z,18.79
2018-07-03T12:04:50.287Z,18.79
2018-07-03T12:05:50.292Z,17.82
2018-07-03T12:06:50.285Z,18.98
2018-07-03T12:07:50.302Z,19.17
2018-07-03T12:08:50.286Z,18.98
2018-07-03T12:09:50.330Z,19.74
2018-07-03T12:10:50.321Z,20.14
2018-07-03T12:11:50.301Z,20.62
2018-07-03T12:12:50.302Z,20.81
2018-07-03T12:13:50.299Z,21.20
2018-07-03T12:14:50.742Z,21.79
2018-07-03T12:15:50.302Z,22.16
2018-07-03T12:16:50.312Z,22.26
2018-07-03T12:17:50.299Z,22.26
2018-07-03T12:18:50.291Z,22.36
2018-07-03T12:19:50.346Z,22.55
2018-07-03T12:20:50.298Z,22.45
2018-07-03T12:21:50.305Z,22.36
2018-07-03T12:22:50.294Z,22.55
2018-07-03T12:23:50.437Z,22.36
2018-07-03T12:24:50.292Z,22.36
2018-07-03T12:25:50.292Z,22.37
2018-07-03T12:26:50.301Z,22.37
2018-07-03T12:27:50.301Z,21.88
2018-07-03T12:28:50.330Z,21.88
2018-07-03T12:29:50.336Z,21.19
2018-07-03T12:30:50.304Z,21.29
2018-07-03T12:31:50.311Z,20.22
2018-07-03T12:32:50.291Z,18.95
2018-07-03T12:33:50.331Z,19.04
2018-07-03T12:34:50.333Z,19.82
2018-07-03T12:35:50.292Z,20.60
2018-07-03T12:36:50.307Z,20.11
2018-07-03T12:37:50.332Z,20.40
2018-07-03T12:38:50.294Z,20.88
2018-07-03T12:39:50.285Z,21.56
2018-07-03T12:40:50.299Z,21.56
2018-07-03T12:41:50.295Z,21.56
2018-07-03T12:42:50.352Z,21.95
2018-07-03T12:43:50.300Z,22.53
2018-07-03T12:44:50.286Z,22.34
2018-07-03T12:45:50.291Z,21.85
2018-07-03T12:46:50.290Z,20.98
2018-07-03T12:47:50.280Z,21.17
2018-07-03T12:48:50.296Z,21.66
2018-07-03T12:49:50.394Z,22.34
2018-07-03T12:50:50.286Z,22.44
2018-07-03T12:51:50.298Z,22.83
2018-07-03T12:52:50.276Z,22.34